• Join FlightAware (Why Join?)
  • Login
  • US Flag 
08:26AM EDT


 

Airport Tracker/Info


-or-


 

Live Flight TrackerFlight Track Log ✈ AAY893 ✈ 31-Jul-2014 ✈ KYNG - KPIE

Flight Track Log - Related Links

Times and Time Zones

All times are in EDT time to prevent confusion due to time zone crossing. See the AAY893 flight status page for this flight to view local times or setup timezone preferences in your user account.

Time Position Orientation Groundspeed Altitude Reporting Facility
EDT Latitude Longitude Course Direction KTS MPH feet Rate Location/Type
07:57PM 41.2819 -80.7244 202° Southwest 164 189 2,800  Level Cleveland Center
07:58PM 41.2250 -80.7550 202° Southwest 237 273 4,700 2,100 Climbing Cleveland Center
07:59PM 41.1561 -80.7844 198° South 252 290 7,200 2,640 Climbing Cleveland Center
08:00PM 41.0722 -80.8156 196° South 278 320 10,200 2,160 Climbing Cleveland Center
08:01PM 40.9906 -80.8447 195° South 298 343 11,700 1,500 Climbing Cleveland Center
08:02PM 40.8914 -80.8811 196° South 362 417 13,400 1,980 Climbing Cleveland Center
08:03PM 40.7881 -80.9183 195° South 384 442 15,900 2,220 Climbing Cleveland Center
08:04PM 40.6619 -80.9647 196° South 392 451 18,100 1,920 Climbing Cleveland Center
08:05PM 40.5500 -81.0039 195° South 412 474 20,000 1,740 Climbing Cleveland Center
08:06PM 40.4369 -81.0447 195° South 418 481 21,800 1,740 Climbing Cleveland Center
08:07PM 40.3228 -81.0867 196° South 429 494 23,600 1,740 Climbing Cleveland Center
08:08PM 40.2075 -81.1275 195° South 430 495 25,500 1,920 Climbing Cleveland Center
08:09PM 40.0708 -81.1753 195° South 429 494 27,600 1,800 Climbing Cleveland Center
08:10PM 39.9583 -81.2150 195° South 421 484 29,300 1,140 Climbing Cleveland Center
08:11PM 39.8492 -81.2533 195° South 411 473 30,000 540 Climbing Cleveland Center
08:12PM 39.7372 -81.2936 195° South 413 475 30,500 720 Climbing Cleveland Center
08:14PM 39.6261 -81.3317 195° South 413 475 31,600 720 Climbing Cleveland Center
08:15PM 39.5117 -81.3519 188° South 412 474 32,000 180 Climbing Cleveland Center
08:16PM 39.3867 -81.3681 186° South 412 474 32,000  Level Indianapolis Center
08:17PM 39.2742 -81.3831 186° South 410 472 32,000  Level Indianapolis Center
08:18PM 39.1394 -81.4017 186° South 408 470 32,000  Level Indianapolis Center
08:19PM 39.0264 -81.4167 186° South 408 470 32,000  Level Indianapolis Center
08:20PM 38.9128 -81.4319 186° South 408 470 32,000  Level Indianapolis Center
08:21PM 38.7967 -81.4472 186° South 411 473 32,000  Level Indianapolis Center
08:22PM 38.6753 -81.4650 187° South 412 474 32,000  Level Indianapolis Center
08:23PM 38.5544 -81.4797 185° South 419 482 32,000  Level Indianapolis Center
08:24PM 38.4372 -81.4958 186° South 419 482 32,000  Level Indianapolis Center
08:25PM 38.3189 -81.5117 186° South 420 483 32,000  Level Indianapolis Center
08:26PM 38.1994 -81.5272 186° South 426 490 32,000  Level Indianapolis Center
08:27PM 38.0800 -81.5436 186° South 427 491 32,000  Level Indianapolis Center
08:28PM 37.9606 -81.5586 186° South 427 491 32,000  Level Indianapolis Center
08:29PM 37.8239 -81.5769 186° South 428 493 32,000  Level Indianapolis Center
08:30PM 37.7044 -81.5936 186° South 428 493 32,000  Level Indianapolis Center
08:31PM 37.5850 -81.6081 185° South 428 493 32,000  Level Indianapolis Center
08:32PM 37.4656 -81.6236 186° South 428 493 32,000  Level Indianapolis Center
08:33PM 37.3467 -81.6386 186° South 428 493 32,000  Level Indianapolis Center
08:34PM 37.2081 -81.6567 186° South 428 493 32,000  Level Indianapolis Center
08:35PM 37.0878 -81.6711 185° South 428 493 32,000  Level Indianapolis Center
08:36PM 36.9683 -81.6872 186° South 428 493 32,000  Level Indianapolis Center
08:37PM 36.8489 -81.7017 186° South 428 493 32,000  Level Indianapolis Center
08:38PM 36.7289 -81.7175 186° South 429 494 32,000  Level Indianapolis Center
08:39PM 36.6069 -81.7325 186° South 430 495 32,000  Level Indianapolis Center
08:40PM 36.4872 -81.7475 186° South 431 496 32,000  Level Indianapolis Center
08:41PM 36.3697 -81.7614 185° South 427 491 32,000  Level Indianapolis Center
08:42PM 36.2339 -81.7800 186° South 421 484 32,000  Level Indianapolis Center
08:43PM 36.1164 -81.7947 186° South 421 484 32,000  Level Indianapolis Center
08:45PM 35.9797 -81.8167 187° South 423 487 32,000  Level Atlanta Center
08:46PM 35.8592 -81.8328 186° South 423 487 32,000  Level Atlanta Center
08:47PM 35.7403 -81.8436 184° South 423 487 32,000 240 Level Atlanta Center
08:48PM 35.6239 -81.8594 186° South 423 487 32,500 600 Climbing Atlanta Center
08:49PM 35.5053 -81.8753 186° South 423 487 33,200 600 Climbing Atlanta Center
08:50PM 35.3886 -81.8911 186° South 423 487 33,800 360 Climbing Atlanta Center
08:51PM 35.2700 -81.9044 185° South 423 487 34,000 60 Climbing Atlanta Center
08:52PM 35.1533 -81.9175 185° South 423 487 34,000  Level Atlanta Center
08:53PM 35.0347 -81.9333 186° South 423 487 34,000  Level Atlanta Center
08:54PM 34.9183 -81.9642 192° South 423 487 34,000  Level Atlanta Center
08:55PM 34.8042 -81.9947 192° South 423 487 34,000  Level Atlanta Center
08:56PM 34.6919 -82.0278 194° South 428 493 34,000  Level Atlanta Center
08:57PM 34.5756 -82.0608 193° South 428 493 34,000  Level Atlanta Center
08:58PM 34.4592 -82.0964 194° South 428 493 34,000  Level Atlanta Center
08:59PM 34.3450 -82.1292 193° South 428 493 34,000  Level Atlanta Center
09:00PM 34.2286 -82.1544 190° South 428 493 34,000  Level Atlanta Center
09:01PM 34.1056 -82.1572 181° South 434 499 34,000  Level Atlanta Center
09:02PM 33.9822 -82.1575 180° South 441 507 34,000  Level Atlanta Center
09:03PM 33.8611 -82.1575 180° South 441 507 34,000  Level Atlanta Center
09:04PM 33.7361 -82.1603 181° South 441 507 34,000  Level Atlanta Center
09:05PM 33.6106 -82.1506 176° South 441 507 34,000  Level Atlanta Center
09:06PM 33.4789 -82.1361 175° South 441 507 34,000  Level Atlanta Center
09:07PM 33.3556 -82.1239 175° South 441 507 34,000  Level Atlanta Center
09:08PM 33.2322 -82.1092 174° South 441 507 34,000  Level Atlanta Center
09:09PM 33.1108 -82.0944 174° South 447 514 34,000  Level Atlanta Center
09:10PM 32.9958 -82.0822 175° South 447 514 34,000  Level Atlanta Center
09:12PM 32.7483 -82.0528 174° South 431 496 34,000  Level Jacksonville Center
09:13PM 32.6250 -82.0417 176° South 442 509 34,000  Level Jacksonville Center
09:14PM 32.5017 -82.0256 174° South 442 509 34,000  Level Jacksonville Center
09:15PM 32.3703 -82.0119 175° South 442 509 34,000  Level Jacksonville Center
09:16PM 32.2511 -82.0181 182° South 431 496 34,000  Level Jacksonville Center
09:17PM 32.1303 -82.0389 188° South 437 503 34,000  Level Jacksonville Center
09:18PM 32.0092 -82.0522 185° South 437 503 34,000  Level Jacksonville Center
09:19PM 31.9008 -82.0678 187° South 445 512 34,000  Level Jacksonville Center
09:20PM 31.7694 -82.0836 186° South 439 505 34,000  Level Jacksonville Center
09:21PM 31.6525 -82.0994 187° South 438 504 34,000  Level Jacksonville Center
09:22PM 31.5419 -82.1150 187° South 438 504 34,000  Level Jacksonville Center
09:23PM 31.4189 -82.1306 186° South 443 510 34,000  Level Jacksonville Center
09:24PM 31.3000 -82.1461 186° South 443 510 34,000  Level Jacksonville Center
09:25PM 31.1789 -82.1617 186° South 443 510 34,000  Level Jacksonville Center
09:26PM 31.0619 -82.1747 185° South 443 510 34,000  Level Jacksonville Center
09:27PM 30.9369 -82.1925 187° South 443 510 34,000  Level Jacksonville Center
09:28PM 30.8158 -82.2081 186° South 443 510 34,000  Level Jacksonville Center
09:29PM 30.6969 -82.2208 185° South 443 510 34,000  Level Jacksonville Center
09:30PM 30.5758 -82.2386 187° South 443 510 34,000  Level Jacksonville Center
09:31PM 30.4425 -82.2517 185° South 443 510 34,000  Level Jacksonville Center
09:32PM 30.3192 -82.2644 185° South 444 511 34,000 -420 Level Jacksonville Center
09:33PM 30.1961 -82.2822 187° South 444 511 33,200 -900 Descending Jacksonville Center
09:34PM 30.0708 -82.2972 186° South 444 511 32,200 -1,320 Descending Jacksonville Center
09:35PM 29.9458 -82.3172 188° South 444 511 30,600 -1,620 Descending Jacksonville Center
09:36PM 29.8228 -82.3322 186° South 444 511 29,000 -1,500 Descending Jacksonville Center
09:37PM 29.7119 -82.3425 185° South 444 511 27,700 -1,500 Descending Jacksonville Center
09:38PM 29.5869 -82.3575 186° South 444 511 26,100 -1,380 Descending Jacksonville Center
09:39PM 29.4617 -82.3464 176° South 444 511 25,000 -1,080 Descending Jacksonville Center
09:40PM 29.3383 -82.3303 174° South 444 511 24,000 -1,500 Descending Jacksonville Center
09:41PM 29.2192 -82.3167 174° South 444 511 22,000 -2,280 Descending Jacksonville Center
09:42PM 29.1003 -82.3033 174° South 439 505 19,500 -2,400 Descending Jacksonville Center
09:43PM 28.9894 -82.2872 173° South 421 484 17,200 -2,520 Descending Jacksonville Center
09:44PM 28.8706 -82.2786 176° South 408 470 14,500 -1,620 Descending Jacksonville Center
09:46PM 28.6733 -82.2586 175° South 357 411 12,400 -1,080 Descending Miami Center
09:47PM 28.5764 -82.2597 181° South 350 403 11,300 -1,140 Descending Miami Center
09:48PM 28.5167 -82.3667 238° Southwest 364 419 10,200 -600 Descending Tampa TRACON
09:49PM 28.5000 -82.4667 259° West 339 390 10,100 -60 Descending Tampa TRACON
09:50PM 28.4667 -82.5500 246° West 328 377 10,100  Level Tampa TRACON
09:51PM 28.4333 -82.6500 249° West 331 381 10,100  Level Tampa TRACON
09:52PM 28.3833 -82.7333 236° Southwest 307 353 10,100 -480 Level Tampa TRACON
09:53PM 28.3333 -82.7833 221° Southwest 296 341 9,300 -1,140 Descending Tampa TRACON
09:54PM 28.2500 -82.8000 190° South 276 318 8,000 -1,200 Descending Tampa TRACON
09:55PM 28.1667 -82.8000 180° South 283 326 6,900 -1,320 Descending Tampa TRACON
09:55PM 28.1000 -82.8167 192° South 257 296 5,600 -1,500 Descending Tampa TRACON
09:56PM 28.0333 -82.8167 180° South 232 267 4,100 -1,560 Descending Tampa TRACON
09:57PM 27.9667 -82.8000 168° South 223 257 2,500 -1,080 Descending Tampa TRACON
09:59PM 27.9167 -82.8000 180° South 227 261 2,000 -300 Descending Tampa TRACON
10:00PM 27.8500 -82.7833 168° South 197 227 1,900 -300 Descending Tampa TRACON
10:01PM 27.8333 -82.7333 111° Southeast 157 181 1,400 -480 Descending Tampa TRACON
10:02PM 27.8500 -82.6833 69° East 148 170 1,000 -540 Descending Tampa TRACON
10:03PM 27.8833 -82.6833 360° North 128 147 400 -600 Descending Tampa TRACON